KASH/ASH METAR and TAF weather

Enter ICAO airport designator
Station Type Date Time Source
KASH METAR 2020/05/30 05:56 UTC NOAA

KASH 300556Z AUTO VRB04KT 10SM SCT047 BKN085 OVC110 22/21 A2982 RMK AO2 SLP102 T02170206 10250 20217 58003


Station Type Date Time Source
KASH Decoded METAR 2020/05/30 05:56 UTC NOAA

Nashua, Boire Field Airport, NH, United States (KASH) 42-46-54N 071-30-53W
May 30, 2020 - 01:56 AM EDT / 2020.05.30 0556 UTC
Wind: Variable at 5 MPH (4 KT):0
Visibility: 10 mile(s):0
Sky conditions: overcast
Temperature: 71.1 F (21.7 C)
Dew Point: 69.1 F (20.6 C)
Relative Humidity: 93%
Pressure (altimeter): 29.82 in. Hg (1009 hPa)
Pressure tendency: 0.01 inches (0.3 hPa) lower than three hours ago
ob: KASH 300556Z AUTO VRB04KT 10SM SCT047 BKN085 OVC110 22/21 A2982 RMK AO2 SLP102 T02170206 10250 20217 58003
cycle: 6

Station Type Date Time Source
KASH TAF UTC NOAA

Error!

Example: see airport list